sensor_id;sensor_type;location;lat;lon;timestamp;pressure;altitude;pressure_sealevel;temperature;humidity
50702;BME280;36670;50.094;8.496;2023-08-06T00:01:11;99420.94;;;20.74;61.33
50702;BME280;36670;50.094;8.496;2023-08-06T00:03:36;99424.25;;;20.46;62.22
50702;BME280;36670;50.094;8.496;2023-08-06T00:06:02;99422.09;;;20.43;62.44
50702;BME280;36670;50.094;8.496;2023-08-06T00:08:27;99406.81;;;20.61;61.97
50702;BME280;36670;50.094;8.496;2023-08-06T00:10:52;99408.88;;;20.73;61.70
50702;BME280;36670;50.094;8.496;2023-08-06T00:13:18;99400.84;;;21.05;61.18
50702;BME280;36670;50.094;8.496;2023-08-06T00:15:43;99401.69;;;20.85;61.68
50702;BME280;36670;50.094;8.496;2023-08-06T00:18:08;99390.00;;;20.83;61.87
50702;BME280;36670;50.094;8.496;2023-08-06T00:20:34;99402.97;;;20.45;62.74
50702;BME280;36670;50.094;8.496;2023-08-06T00:23:02;99394.81;;;20.94;61.73
50702;BME280;36670;50.094;8.496;2023-08-06T00:25:27;99395.63;;;20.83;61.68
50702;BME280;36670;50.094;8.496;2023-08-06T00:27:52;99396.47;;;20.95;61.23
50702;BME280;36670;50.094;8.496;2023-08-06T00:30:18;99397.66;;;20.73;61.87
50702;BME280;36670;50.094;8.496;2023-08-06T00:32:43;99388.84;;;20.84;61.25
50702;BME280;36670;50.094;8.496;2023-08-06T00:35:11;99395.19;;;20.72;61.83
50702;BME280;36670;50.094;8.496;2023-08-06T00:37:38;99384.13;;;20.75;62.27
50702;BME280;36670;50.094;8.496;2023-08-06T00:40:04;99385.28;;;20.74;62.12
50702;BME280;36670;50.094;8.496;2023-08-06T00:42:30;99377.03;;;20.78;62.32
50702;BME280;36670;50.094;8.496;2023-08-06T00:44:55;99385.69;;;20.64;62.15
50702;BME280;36670;50.094;8.496;2023-08-06T00:47:20;99388.16;;;20.87;61.48
50702;BME280;36670;50.094;8.496;2023-08-06T00:49:46;99375.47;;;20.80;62.00
50702;BME280;36670;50.094;8.496;2023-08-06T00:52:11;99373.97;;;20.83;61.55
50702;BME280;36670;50.094;8.496;2023-08-06T00:54:39;99359.16;;;21.28;60.65
50702;BME280;36670;50.094;8.496;2023-08-06T00:57:04;99365.88;;;21.03;61.66
50702;BME280;36670;50.094;8.496;2023-08-06T00:59:32;99358.50;;;20.98;61.29
50702;BME280;36670;50.094;8.496;2023-08-06T01:01:57;99352.47;;;20.87;61.41
50702;BME280;36670;50.094;8.496;2023-08-06T01:04:23;99352.31;;;21.05;61.21
50702;BME280;36670;50.094;8.496;2023-08-06T01:12:41;99341.34;;;21.12;61.10
50702;BME280;36670;50.094;8.496;2023-08-06T01:15:21;99344.78;;;21.30;60.85
50702;BME280;36670;50.094;8.496;2023-08-06T01:17:47;99338.03;;;21.68;59.26
50702;BME280;36670;50.094;8.496;2023-08-06T01:20:13;99343.94;;;21.42;60.10
50702;BME280;36670;50.094;8.496;2023-08-06T01:22:39;99332.84;;;21.45;60.02
50702;BME280;36670;50.094;8.496;2023-08-06T01:25:05;99334.88;;;21.70;59.23
50702;BME280;36670;50.094;8.496;2023-08-06T01:27:42;99333.72;;;21.83;59.43
50702;BME280;36670;50.094;8.496;2023-08-06T01:30:12;99325.75;;;21.85;58.42
50702;BME280;36670;50.094;8.496;2023-08-06T01:32:44;99322.34;;;21.79;58.78
50702;BME280;36670;50.094;8.496;2023-08-06T01:35:11;99319.06;;;22.02;58.21
50702;BME280;36670;50.094;8.496;2023-08-06T01:37:37;99323.97;;;22.05;58.15
50702;BME280;36670;50.094;8.496;2023-08-06T01:40:10;99319.44;;;21.76;58.72
50702;BME280;36670;50.094;8.496;2023-08-06T01:42:37;99319.75;;;21.49;59.24
50702;BME280;36670;50.094;8.496;2023-08-06T01:45:03;99315.88;;;21.29;59.79
50702;BME280;36670;50.094;8.496;2023-08-06T01:47:28;99315.88;;;21.29;59.63
50702;BME280;36670;50.094;8.496;2023-08-06T01:49:53;99314.69;;;21.18;59.87
50702;BME280;36670;50.094;8.496;2023-08-06T01:52:19;99310.19;;;21.75;59.02
50702;BME280;36670;50.094;8.496;2023-08-06T01:54:44;99308.41;;;21.95;58.46
50702;BME280;36670;50.094;8.496;2023-08-06T01:57:10;99315.81;;;21.63;59.58
50702;BME280;36670;50.094;8.496;2023-08-06T01:59:35;99312.06;;;21.59;59.37
50702;BME280;36670;50.094;8.496;2023-08-06T02:02:00;99320.00;;;21.57;59.79
50702;BME280;36670;50.094;8.496;2023-08-06T02:04:25;99308.19;;;21.76;58.72
50702;BME280;36670;50.094;8.496;2023-08-06T02:06:51;99307.84;;;21.90;59.09
50702;BME280;36670;50.094;8.496;2023-08-06T02:09:16;99312.50;;;21.86;58.48
50702;BME280;36670;50.094;8.496;2023-08-06T02:11:41;99308.75;;;21.94;58.80
50702;BME280;36670;50.094;8.496;2023-08-06T02:14:07;99309.44;;;22.03;57.95
50702;BME280;36670;50.094;8.496;2023-08-06T02:16:32;99302.44;;;21.97;58.12
50702;BME280;36670;50.094;8.496;2023-08-06T02:18:57;99294.13;;;21.39;59.53
50702;BME280;36670;50.094;8.496;2023-08-06T02:21:22;99279.50;;;20.75;60.68
50702;BME280;36670;50.094;8.496;2023-08-06T02:23:48;99282.28;;;21.08;60.35
50702;BME280;36670;50.094;8.496;2023-08-06T02:26:13;99266.56;;;20.83;60.48
50702;BME280;36670;50.094;8.496;2023-08-06T02:28:39;99276.75;;;20.87;60.33
50702;BME280;36670;50.094;8.496;2023-08-06T02:31:04;99269.88;;;21.09;60.03
50702;BME280;36670;50.094;8.496;2023-08-06T02:33:31;99270.50;;;21.27;59.40
50702;BME280;36670;50.094;8.496;2023-08-06T02:36:01;99256.22;;;21.45;59.01
50702;BME280;36670;50.094;8.496;2023-08-06T02:38:27;99250.72;;;21.48;58.49
50702;BME280;36670;50.094;8.496;2023-08-06T02:40:55;99253.53;;;21.48;58.63
50702;BME280;36670;50.094;8.496;2023-08-06T02:43:20;99255.88;;;21.46;58.57
50702;BME280;36670;50.094;8.496;2023-08-06T02:45:46;99256.69;;;21.22;59.17
50702;BME280;36670;50.094;8.496;2023-08-06T02:48:11;99255.84;;;21.09;59.24
50702;BME280;36670;50.094;8.496;2023-08-06T02:50:41;99257.03;;;20.96;59.77
50702;BME280;36670;50.094;8.496;2023-08-06T02:53:07;99254.69;;;21.10;59.24
50702;BME280;36670;50.094;8.496;2023-08-06T02:55:33;99255.41;;;21.20;58.98
50702;BME280;36670;50.094;8.496;2023-08-06T02:57:59;99241.13;;;21.25;58.75
50702;BME280;36670;50.094;8.496;2023-08-06T03:00:25;99241.34;;;21.32;58.78
50702;BME280;36670;50.094;8.496;2023-08-06T03:02:50;99239.59;;;21.03;59.57
50702;BME280;36670;50.094;8.496;2023-08-06T03:05:16;99236.34;;;20.67;60.51
50702;BME280;36670;50.094;8.496;2023-08-06T03:07:41;99229.56;;;20.56;61.04
50702;BME280;36670;50.094;8.496;2023-08-06T03:10:07;99231.13;;;20.11;62.38
50702;BME280;36670;50.094;8.496;2023-08-06T03:12:32;99229.25;;;20.36;61.92
50702;BME280;36670;50.094;8.496;2023-08-06T03:14:57;99221.78;;;20.40;61.42
50702;BME280;36670;50.094;8.496;2023-08-06T03:17:23;99220.41;;;20.46;61.57
50702;BME280;36670;50.094;8.496;2023-08-06T03:19:48;99223.44;;;20.87;60.46
50702;BME280;36670;50.094;8.496;2023-08-06T03:22:13;99211.50;;;20.90;60.53
50702;BME280;36670;50.094;8.496;2023-08-06T03:24:38;99215.63;;;20.59;61.25
50702;BME280;36670;50.094;8.496;2023-08-06T03:27:04;99220.69;;;20.66;60.94
50702;BME280;36670;50.094;8.496;2023-08-06T03:29:29;99216.66;;;20.88;60.29
50702;BME280;36670;50.094;8.496;2023-08-06T03:31:55;99215.88;;;20.67;60.33
50702;BME280;36670;50.094;8.496;2023-08-06T03:34:20;99210.94;;;20.85;60.16
50702;BME280;36670;50.094;8.496;2023-08-06T03:36:45;99200.81;;;20.59;60.71
50702;BME280;36670;50.094;8.496;2023-08-06T03:39:11;99202.88;;;20.50;61.09
50702;BME280;36670;50.094;8.496;2023-08-06T03:41:36;99205.44;;;20.42;61.01
50702;BME280;36670;50.094;8.496;2023-08-06T03:44:01;99204.88;;;20.49;61.05
50702;BME280;36670;50.094;8.496;2023-08-06T03:46:29;99205.94;;;20.57;61.02
50702;BME280;36670;50.094;8.496;2023-08-06T03:48:58;99201.13;;;20.45;60.98
50702;BME280;36670;50.094;8.496;2023-08-06T03:51:24;99213.19;;;20.58;61.13
50702;BME280;36670;50.094;8.496;2023-08-06T03:53:49;99203.09;;;20.44;60.91
50702;BME280;36670;50.094;8.496;2023-08-06T03:56:14;99202.84;;;20.37;61.44
50702;BME280;36670;50.094;8.496;2023-08-06T03:58:40;99199.75;;;20.18;61.86
50702;BME280;36670;50.094;8.496;2023-08-06T04:01:05;99188.06;;;20.16;62.05
50702;BME280;36670;50.094;8.496;2023-08-06T04:03:30;99184.16;;;20.87;60.45
50702;BME280;36670;50.094;8.496;2023-08-06T04:05:55;99194.13;;;20.51;60.92
50702;BME280;36670;50.094;8.496;2023-08-06T04:08:21;99193.84;;;20.32;60.83
50702;BME280;36670;50.094;8.496;2023-08-06T04:10:49;99197.03;;;20.42;61.12
50702;BME280;36670;50.094;8.496;2023-08-06T04:13:15;99198.94;;;20.63;60.87
50702;BME280;36670;50.094;8.496;2023-08-06T04:15:40;99202.28;;;20.44;60.83
50702;BME280;36670;50.094;8.496;2023-08-06T04:18:05;99191.34;;;20.18;60.95
50702;BME280;36670;50.094;8.496;2023-08-06T04:20:30;99194.38;;;20.25;61.16
50702;BME280;36670;50.094;8.496;2023-08-06T04:22:56;99191.22;;;20.48;61.07
50702;BME280;36670;50.094;8.496;2023-08-06T04:25:21;99191.56;;;20.58;60.84
50702;BME280;36670;50.094;8.496;2023-08-06T04:27:47;99195.97;;;20.68;60.79
50702;BME280;36670;50.094;8.496;2023-08-06T04:30:12;99187.91;;;20.79;60.43
50702;BME280;36670;50.094;8.496;2023-08-06T04:32:39;99197.97;;;21.05;59.79
50702;BME280;36670;50.094;8.496;2023-08-06T04:35:05;99193.19;;;21.18;59.93
50702;BME280;36670;50.094;8.496;2023-08-06T04:37:30;99191.31;;;20.97;60.04
50702;BME280;36670;50.094;8.496;2023-08-06T04:39:55;99193.97;;;21.30;59.19
50702;BME280;36670;50.094;8.496;2023-08-06T04:42:21;99198.91;;;21.21;58.93
50702;BME280;36670;50.094;8.496;2023-08-06T04:44:46;99194.25;;;21.01;59.06
50702;BME280;36670;50.094;8.496;2023-08-06T04:47:11;99199.16;;;20.58;60.47
50702;BME280;36670;50.094;8.496;2023-08-06T04:49:37;99201.53;;;20.35;61.07
50702;BME280;36670;50.094;8.496;2023-08-06T04:52:02;99198.59;;;20.19;60.92
50702;BME280;36670;50.094;8.496;2023-08-06T04:54:27;99199.63;;;20.14;61.75
50702;BME280;36670;50.094;8.496;2023-08-06T04:56:53;99196.19;;;19.66;63.21
50702;BME280;36670;50.094;8.496;2023-08-06T04:59:18;99205.66;;;19.83;62.99
50702;BME280;36670;50.094;8.496;2023-08-06T05:01:43;99202.03;;;20.03;62.38
50702;BME280;36670;50.094;8.496;2023-08-06T05:04:09;99200.97;;;19.66;63.82
50702;BME280;36670;50.094;8.496;2023-08-06T05:06:34;99203.59;;;19.71;63.61
50702;BME280;36670;50.094;8.496;2023-08-06T05:08:59;99196.97;;;19.97;63.08
50702;BME280;36670;50.094;8.496;2023-08-06T05:11:25;99191.50;;;20.00;63.47
50702;BME280;36670;50.094;8.496;2023-08-06T05:13:50;99198.28;;;19.69;64.39
50702;BME280;36670;50.094;8.496;2023-08-06T05:16:15;99191.81;;;19.77;65.02
50702;BME280;36670;50.094;8.496;2023-08-06T05:18:41;99194.94;;;19.85;64.39
50702;BME280;36670;50.094;8.496;2023-08-06T05:21:07;99192.56;;;20.41;63.31
50702;BME280;36670;50.094;8.496;2023-08-06T05:23:32;99193.13;;;20.01;63.86
50702;BME280;36670;50.094;8.496;2023-08-06T05:25:57;99187.22;;;20.15;63.39
50702;BME280;36670;50.094;8.496;2023-08-06T05:28:23;99190.28;;;19.89;64.13
50702;BME280;36670;50.094;8.496;2023-08-06T05:30:48;99188.28;;;20.10;64.06
50702;BME280;36670;50.094;8.496;2023-08-06T05:33:14;99191.06;;;20.10;64.13
50702;BME280;36670;50.094;8.496;2023-08-06T05:35:40;99191.84;;;19.99;64.58
50702;BME280;36670;50.094;8.496;2023-08-06T05:38:06;99195.31;;;19.74;64.74
50702;BME280;36670;50.094;8.496;2023-08-06T05:40:33;99194.03;;;19.93;64.27
50702;BME280;36670;50.094;8.496;2023-08-06T05:42:59;99192.69;;;19.69;65.19
50702;BME280;36670;50.094;8.496;2023-08-06T05:45:24;99203.22;;;19.51;65.33
50702;BME280;36670;50.094;8.496;2023-08-06T05:47:50;99197.63;;;19.72;65.00
50702;BME280;36670;50.094;8.496;2023-08-06T05:50:15;99191.09;;;19.68;65.12
50702;BME280;36670;50.094;8.496;2023-08-06T05:52:40;99200.56;;;19.55;65.96
50702;BME280;36670;50.094;8.496;2023-08-06T05:55:06;99201.69;;;19.33;66.85
50702;BME280;36670;50.094;8.496;2023-08-06T05:57:31;99194.03;;;19.93;65.36
50702;BME280;36670;50.094;8.496;2023-08-06T05:59:57;99202.81;;;19.61;66.11
50702;BME280;36670;50.094;8.496;2023-08-06T06:02:22;99204.66;;;19.27;66.81
50702;BME280;36670;50.094;8.496;2023-08-06T06:04:47;99198.72;;;19.59;66.23
50702;BME280;36670;50.094;8.496;2023-08-06T06:07:13;99204.13;;;20.06;65.02
50702;BME280;36670;50.094;8.496;2023-08-06T06:09:39;99202.38;;;20.35;64.31
50702;BME280;36670;50.094;8.496;2023-08-06T06:12:05;99199.84;;;19.88;65.44
50702;BME280;36670;50.094;8.496;2023-08-06T06:14:30;99204.03;;;20.03;65.42
50702;BME280;36670;50.094;8.496;2023-08-06T06:16:56;99201.06;;;19.99;65.18
50702;BME280;36670;50.094;8.496;2023-08-06T06:19:21;99206.94;;;20.06;64.53
50702;BME280;36670;50.094;8.496;2023-08-06T06:21:47;99202.38;;;20.02;65.22
50702;BME280;36670;50.094;8.496;2023-08-06T06:24:12;99204.22;;;19.98;64.82
50702;BME280;36670;50.094;8.496;2023-08-06T06:26:38;99206.28;;;20.22;64.36
50702;BME280;36670;50.094;8.496;2023-08-06T06:29:03;99205.00;;;20.19;64.05
50702;BME280;36670;50.094;8.496;2023-08-06T06:31:29;99197.19;;;20.25;64.43
50702;BME280;36670;50.094;8.496;2023-08-06T06:33:54;99209.19;;;20.13;64.21
50702;BME280;36670;50.094;8.496;2023-08-06T06:36:19;99207.34;;;20.17;63.78
50702;BME280;36670;50.094;8.496;2023-08-06T06:38:45;99203.44;;;19.67;64.42
50702;BME280;36670;50.094;8.496;2023-08-06T06:41:10;99222.66;;;19.48;65.42
50702;BME280;36670;50.094;8.496;2023-08-06T06:43:36;99214.25;;;19.26;66.48
50702;BME280;36670;50.094;8.496;2023-08-06T06:46:02;99211.28;;;19.53;65.68
50702;BME280;36670;50.094;8.496;2023-08-06T06:48:29;99210.22;;;19.87;65.13
50702;BME280;36670;50.094;8.496;2023-08-06T06:50:55;99209.03;;;19.67;65.14
50702;BME280;36670;50.094;8.496;2023-08-06T06:53:20;99212.03;;;19.11;66.75
50702;BME280;36670;50.094;8.496;2023-08-06T06:55:48;99221.56;;;19.10;66.60
50702;BME280;36670;50.094;8.496;2023-08-06T06:58:15;99215.16;;;19.39;66.39
50702;BME280;36670;50.094;8.496;2023-08-06T07:00:41;99217.47;;;19.37;66.65
50702;BME280;36670;50.094;8.496;2023-08-06T07:03:06;99213.75;;;19.54;66.10
50702;BME280;36670;50.094;8.496;2023-08-06T07:05:32;99203.09;;;20.11;65.05
50702;BME280;36670;50.094;8.496;2023-08-06T07:07:57;99211.53;;;19.90;65.04
50702;BME280;36670;50.094;8.496;2023-08-06T07:10:23;99208.44;;;20.04;65.08
50702;BME280;36670;50.094;8.496;2023-08-06T07:12:48;99205.03;;;19.98;65.02
50702;BME280;36670;50.094;8.496;2023-08-06T07:15:13;99202.03;;;20.03;64.91
50702;BME280;36670;50.094;8.496;2023-08-06T07:17:39;99201.59;;;19.71;65.73
50702;BME280;36670;50.094;8.496;2023-08-06T07:20:04;99206.34;;;19.80;65.43
50702;BME280;36670;50.094;8.496;2023-08-06T07:22:31;99205.09;;;19.89;65.63
50702;BME280;36670;50.094;8.496;2023-08-06T07:24:56;99210.94;;;20.18;64.89
50702;BME280;36670;50.094;8.496;2023-08-06T07:27:22;99215.31;;;20.27;64.49
50702;BME280;36670;50.094;8.496;2023-08-06T07:29:47;99207.16;;;20.35;64.19
50702;BME280;36670;50.094;8.496;2023-08-06T07:32:13;99214.00;;;20.25;64.83
50702;BME280;36670;50.094;8.496;2023-08-06T07:34:39;99206.31;;;20.01;65.12
50702;BME280;36670;50.094;8.496;2023-08-06T07:37:04;99221.53;;;19.49;66.85
50702;BME280;36670;50.094;8.496;2023-08-06T07:39:30;99217.16;;;19.60;66.97
50702;BME280;36670;50.094;8.496;2023-08-06T07:41:56;99210.38;;;19.91;66.27
50702;BME280;36670;50.094;8.496;2023-08-06T07:44:21;99210.91;;;19.84;66.45
50702;BME280;36670;50.094;8.496;2023-08-06T07:46:47;99214.53;;;20.39;65.00
50702;BME280;36670;50.094;8.496;2023-08-06T07:49:12;99210.59;;;20.40;64.86
50702;BME280;36670;50.094;8.496;2023-08-06T07:51:37;99213.84;;;20.76;63.60
50702;BME280;36670;50.094;8.496;2023-08-06T07:54:03;99206.66;;;20.66;64.33
50702;BME280;36670;50.094;8.496;2023-08-06T07:56:28;99208.53;;;20.62;64.63
50702;BME280;36670;50.094;8.496;2023-08-06T07:58:54;99205.78;;;20.41;65.60
50702;BME280;36670;50.094;8.496;2023-08-06T08:01:19;99201.22;;;20.94;64.15
50702;BME280;36670;50.094;8.496;2023-08-06T08:03:44;99202.66;;;20.55;64.81
50702;BME280;36670;50.094;8.496;2023-08-06T08:06:10;99204.75;;;20.91;63.79
50702;BME280;36670;50.094;8.496;2023-08-06T08:08:36;99201.81;;;20.42;64.94
50702;BME280;36670;50.094;8.496;2023-08-06T08:11:03;99206.41;;;20.59;65.04
50702;BME280;36670;50.094;8.496;2023-08-06T08:13:28;99194.66;;;20.32;65.37
50702;BME280;36670;50.094;8.496;2023-08-06T08:15:58;99192.38;;;20.46;65.09
50702;BME280;36670;50.094;8.496;2023-08-06T08:18:23;99190.06;;;20.61;64.72
50702;BME280;36670;50.094;8.496;2023-08-06T08:20:49;99181.84;;;20.43;65.10
50702;BME280;36670;50.094;8.496;2023-08-06T08:23:14;99189.34;;;20.97;64.37
50702;BME280;36670;50.094;8.496;2023-08-06T08:25:39;99186.03;;;20.83;63.86
50702;BME280;36670;50.094;8.496;2023-08-06T08:28:05;99184.16;;;20.87;64.23
50702;BME280;36670;50.094;8.496;2023-08-06T08:30:30;99190.13;;;20.98;64.04
50702;BME280;36670;50.094;8.496;2023-08-06T08:32:56;99178.00;;;21.19;64.07
50702;BME280;36670;50.094;8.496;2023-08-06T08:35:24;99188.47;;;21.71;63.14
50702;BME280;36670;50.094;8.496;2023-08-06T08:37:49;99186.22;;;21.77;62.16
50702;BME280;36670;50.094;8.496;2023-08-06T08:40:15;99178.00;;;21.84;62.47
50702;BME280;36670;50.094;8.496;2023-08-06T08:42:40;99181.78;;;21.76;61.94
50702;BME280;36670;50.094;8.496;2023-08-06T08:45:12;99180.69;;;21.80;61.73
50702;BME280;36670;50.094;8.496;2023-08-06T08:47:42;99185.94;;;21.54;61.34
50702;BME280;36670;50.094;8.496;2023-08-06T08:50:08;99179.13;;;21.67;62.06
50702;BME280;36670;50.094;8.496;2023-08-06T08:52:36;99178.63;;;21.77;63.49
50702;BME280;36670;50.094;8.496;2023-08-06T08:55:03;99186.19;;;22.46;61.86
50702;BME280;36670;50.094;8.496;2023-08-06T08:57:28;99185.59;;;23.00;62.08
50702;BME280;36670;50.094;8.496;2023-08-06T08:59:54;99174.94;;;23.77;61.32
50702;BME280;36670;50.094;8.496;2023-08-06T09:02:21;99168.06;;;24.14;59.30
50702;BME280;36670;50.094;8.496;2023-08-06T09:04:47;99172.78;;;23.71;58.59
50702;BME280;36670;50.094;8.496;2023-08-06T09:07:17;99177.19;;;23.88;58.07
50702;BME280;36670;50.094;8.496;2023-08-06T09:09:43;99181.81;;;23.80;57.38
50702;BME280;36670;50.094;8.496;2023-08-06T09:12:15;99175.75;;;23.78;56.96
50702;BME280;36670;50.094;8.496;2023-08-06T09:14:41;99178.47;;;23.74;56.48
50702;BME280;36670;50.094;8.496;2023-08-06T09:17:06;99175.66;;;23.74;56.37
50702;BME280;36670;50.094;8.496;2023-08-06T09:19:32;99171.69;;;23.95;56.54
50702;BME280;36670;50.094;8.496;2023-08-06T09:21:58;99169.31;;;24.16;57.45
50702;BME280;36670;50.094;8.496;2023-08-06T09:24:24;99159.53;;;24.53;55.66
50702;BME280;36670;50.094;8.496;2023-08-06T09:26:49;99165.84;;;24.66;55.08
50702;BME280;36670;50.094;8.496;2023-08-06T09:29:15;99161.63;;;25.02;54.93
50702;BME280;36670;50.094;8.496;2023-08-06T09:31:48;99154.59;;;25.43;54.53
50702;BME280;36670;50.094;8.496;2023-08-06T09:34:16;99150.88;;;25.38;54.86
50702;BME280;36670;50.094;8.496;2023-08-06T09:36:53;99152.22;;;25.21;53.60
50702;BME280;36670;50.094;8.496;2023-08-06T09:39:28;99158.47;;;25.08;54.07
50702;BME280;36670;50.094;8.496;2023-08-06T09:41:57;99156.72;;;24.99;53.54
50702;BME280;36670;50.094;8.496;2023-08-06T09:44:24;99152.06;;;25.11;53.60
50702;BME280;36670;50.094;8.496;2023-08-06T09:46:52;99154.63;;;25.19;53.61
50702;BME280;36670;50.094;8.496;2023-08-06T09:49:19;99146.19;;;25.23;53.72
50702;BME280;36670;50.094;8.496;2023-08-06T09:51:45;99152.59;;;24.93;53.42
50702;BME280;36670;50.094;8.496;2023-08-06T09:54:15;99157.09;;;24.98;53.57
50702;BME280;36670;50.094;8.496;2023-08-06T09:56:42;99160.88;;;24.40;53.25
50702;BME280;36670;50.094;8.496;2023-08-06T09:59:08;99160.50;;;24.18;54.28
50702;BME280;36670;50.094;8.496;2023-08-06T10:01:35;99160.03;;;23.96;54.13
50702;BME280;36670;50.094;8.496;2023-08-06T10:04:01;99155.25;;;23.97;55.63
50702;BME280;36670;50.094;8.496;2023-08-06T10:06:28;99160.88;;;24.40;54.65
50702;BME280;36670;50.094;8.496;2023-08-06T10:08:54;99162.78;;;24.75;53.75
50702;BME280;36670;50.094;8.496;2023-08-06T10:11:22;99162.78;;;24.12;54.47
50702;BME280;36670;50.094;8.496;2023-08-06T10:13:50;99169.16;;;23.90;54.58
50702;BME280;36670;50.094;8.496;2023-08-06T10:16:18;99164.72;;;23.53;55.11
50702;BME280;36670;50.094;8.496;2023-08-06T10:18:45;99178.34;;;23.31;56.14
50702;BME280;36670;50.094;8.496;2023-08-06T10:21:10;99173.06;;;23.30;57.06
50702;BME280;36670;50.094;8.496;2023-08-06T10:23:36;99176.78;;;23.69;56.95
50702;BME280;36670;50.094;8.496;2023-08-06T10:26:03;99161.91;;;23.89;57.17
50702;BME280;36670;50.094;8.496;2023-08-06T10:28:38;99168.34;;;24.28;56.26
50702;BME280;36670;50.094;8.496;2023-08-06T10:31:05;99160.22;;;24.46;54.60
50702;BME280;36670;50.094;8.496;2023-08-06T10:33:44;99163.69;;;23.97;55.11
50702;BME280;36670;50.094;8.496;2023-08-06T10:36:10;99164.91;;;24.39;55.44
50702;BME280;36670;50.094;8.496;2023-08-06T10:38:47;99163.38;;;24.64;55.05
50702;BME280;36670;50.094;8.496;2023-08-06T10:41:27;99169.72;;;25.04;54.95
50702;BME280;36670;50.094;8.496;2023-08-06T10:44:05;99171.13;;;25.17;54.38
50702;BME280;36670;50.094;8.496;2023-08-06T10:46:32;99163.34;;;25.11;52.72
50702;BME280;36670;50.094;8.496;2023-08-06T10:48:57;99164.66;;;25.40;53.55
50702;BME280;36670;50.094;8.496;2023-08-06T10:51:23;99170.03;;;25.49;52.02
50702;BME280;36670;50.094;8.496;2023-08-06T10:53:49;99167.09;;;25.72;52.83
50702;BME280;36670;50.094;8.496;2023-08-06T10:58:44;99173.56;;;25.19;52.08
50702;BME280;36670;50.094;8.496;2023-08-06T11:01:10;99172.47;;;24.77;51.17
50702;BME280;36670;50.094;8.496;2023-08-06T11:03:37;99184.34;;;23.85;51.86
50702;BME280;36670;50.094;8.496;2023-08-06T11:06:02;99185.69;;;23.36;52.48
50702;BME280;36670;50.094;8.496;2023-08-06T11:08:33;99183.53;;;23.65;52.76
50702;BME280;36670;50.094;8.496;2023-08-06T11:11:12;99181.38;;;23.78;53.98
50702;BME280;36670;50.094;8.496;2023-08-06T11:16:06;99165.06;;;24.69;53.43
50702;BME280;36670;50.094;8.496;2023-08-06T11:18:32;99171.94;;;24.68;53.21
50702;BME280;36670;50.094;8.496;2023-08-06T11:21:01;99188.50;;;24.50;53.37
50702;BME280;36670;50.094;8.496;2023-08-06T11:23:27;99178.16;;;24.15;53.04
50702;BME280;36670;50.094;8.496;2023-08-06T11:25:57;99175.34;;;24.15;53.69
50702;BME280;36670;50.094;8.496;2023-08-06T11:28:23;99188.66;;;24.37;53.39
50702;BME280;36670;50.094;8.496;2023-08-06T11:30:49;99187.13;;;24.20;54.33
50702;BME280;36670;50.094;8.496;2023-08-06T11:33:14;99190.94;;;24.51;53.98
50702;BME280;36670;50.094;8.496;2023-08-06T11:35:40;99195.50;;;23.97;55.17
50702;BME280;36670;50.094;8.496;2023-08-06T11:38:06;99200.72;;;23.95;53.62
50702;BME280;36670;50.094;8.496;2023-08-06T11:40:32;99205.91;;;23.58;54.12
50702;BME280;36670;50.094;8.496;2023-08-06T11:42:58;99201.88;;;23.59;55.31
50702;BME280;36670;50.094;8.496;2023-08-06T11:45:24;99201.94;;;22.95;55.87
50702;BME280;36670;50.094;8.496;2023-08-06T11:47:50;99223.44;;;22.71;55.55
50702;BME280;36670;50.094;8.496;2023-08-06T11:50:27;99240.72;;;22.57;55.01
50702;BME280;36670;50.094;8.496;2023-08-06T11:52:56;99238.31;;;22.15;54.74
50702;BME280;36670;50.094;8.496;2023-08-06T11:55:23;99242.81;;;22.32;55.59
50702;BME280;36670;50.094;8.496;2023-08-06T11:57:49;99251.06;;;22.25;56.27
50702;BME280;36670;50.094;8.496;2023-08-06T12:00:14;99254.63;;;22.09;56.31
50702;BME280;36670;50.094;8.496;2023-08-06T12:02:41;99253.28;;;21.91;56.62
50702;BME280;36670;50.094;8.496;2023-08-06T12:05:16;99256.34;;;21.73;56.93
50702;BME280;36670;50.094;8.496;2023-08-06T12:07:43;99270.00;;;21.50;57.91
50702;BME280;36670;50.094;8.496;2023-08-06T12:10:09;99279.72;;;21.40;58.42
50702;BME280;36670;50.094;8.496;2023-08-06T12:12:35;99286.41;;;21.48;59.12
50702;BME280;36670;50.094;8.496;2023-08-06T12:15:01;99289.81;;;21.78;59.76
50702;BME280;36670;50.094;8.496;2023-08-06T12:17:27;99290.41;;;21.72;59.02
50702;BME280;36670;50.094;8.496;2023-08-06T12:19:52;99292.31;;;22.08;57.48
50702;BME280;36670;50.094;8.496;2023-08-06T12:22:18;99299.66;;;21.47;58.34
50702;BME280;36670;50.094;8.496;2023-08-06T12:24:44;99288.84;;;21.25;58.77
50702;BME280;36670;50.094;8.496;2023-08-06T12:27:11;99301.81;;;21.05;58.87
50702;BME280;36670;50.094;8.496;2023-08-06T12:29:44;99304.34;;;20.85;59.59
50702;BME280;36670;50.094;8.496;2023-08-06T12:32:10;99316.16;;;20.91;59.42
50702;BME280;36670;50.094;8.496;2023-08-06T12:34:38;99323.72;;;20.78;60.52
50702;BME280;36670;50.094;8.496;2023-08-06T12:37:03;99324.78;;;20.64;59.45
50702;BME280;36670;50.094;8.496;2023-08-06T12:39:28;99333.66;;;21.21;59.05
50702;BME280;36670;50.094;8.496;2023-08-06T12:41:55;99335.63;;;20.54;59.93
50702;BME280;36670;50.094;8.496;2023-08-06T12:44:20;99327.97;;;20.42;60.88
50702;BME280;36670;50.094;8.496;2023-08-06T12:46:45;99339.00;;;20.68;59.37
50702;BME280;36670;50.094;8.496;2023-08-06T12:49:11;99327.59;;;20.64;59.84
50702;BME280;36670;50.094;8.496;2023-08-06T12:51:36;99336.91;;;20.77;59.11
50702;BME280;36670;50.094;8.496;2023-08-06T12:54:01;99345.47;;;20.81;59.12
50702;BME280;36670;50.094;8.496;2023-08-06T12:56:27;99351.97;;;20.73;59.49
50702;BME280;36670;50.094;8.496;2023-08-06T12:58:52;99349.78;;;20.78;59.96
50702;BME280;36670;50.094;8.496;2023-08-06T13:01:17;99345.50;;;20.93;59.24
50702;BME280;36670;50.094;8.496;2023-08-06T13:03:42;99376.78;;;20.41;60.51
50702;BME280;36670;50.094;8.496;2023-08-06T13:06:08;99373.75;;;20.25;60.90